Time;durP1;ratioP1;P1;durP2;ratioP2;P2;SDS_P1;SDS_P2;PMS_P1;PMS_P2;Temp;Humidity;BMP_temperature;BMP_pressure;BME280_temperature;BME280_humidity;BME280_pressure;Samples;Min_cycle;Max_cycle;Signal;HPM_P1;HPM_P2
2023/06/28 00:00:43;;;;;;;6.75;2.08;;;16.40;99.90;;;;;;4886314;29;20061;-70
2023/06/28 00:03:10;;;;;;;7.18;2.72;;;16.40;99.90;;;;;;4886391;29;20131;-70
2023/06/28 00:05:37;;;;;;;9.20;2.97;;;16.40;99.90;;;;;;4868344;29;20135;-70
2023/06/28 00:08:03;;;;;;;10.50;2.70;;;16.40;99.90;;;;;;4886480;29;20895;-70
2023/06/28 00:10:29;;;;;;;5.15;2.50;;;16.40;99.90;;;;;;4884496;29;20076;-70
2023/06/28 00:12:55;;;;;;;6.95;3.00;;;16.50;99.90;;;;;;4869348;29;20064;-70
2023/06/28 00:15:21;;;;;;;5.97;2.60;;;16.50;99.90;;;;;;4885048;29;20091;-69
2023/06/28 00:17:47;;;;;;;6.45;3.13;;;16.50;99.90;;;;;;4886137;29;20080;-69
2023/06/28 00:20:13;;;;;;;4.18;2.78;;;16.50;99.90;;;;;;4886004;29;20064;-69
2023/06/28 00:22:39;;;;;;;9.57;2.92;;;16.40;99.90;;;;;;4884568;29;20112;-70
2023/06/28 00:25:06;;;;;;;10.07;2.88;;;16.40;99.90;;;;;;4886225;29;20057;-69
2023/06/28 00:27:32;;;;;;;8.98;2.67;;;16.40;99.90;;;;;;4883082;29;20056;-70
2023/06/28 00:29:58;;;;;;;11.25;3.17;;;16.50;99.90;;;;;;4869022;29;20442;-69
2023/06/28 00:32:25;;;;;;;7.80;2.70;;;16.40;99.90;;;;;;4884682;29;20067;-70
2023/06/28 00:34:51;;;;;;;9.55;2.97;;;16.40;99.90;;;;;;4886256;29;20053;-70
2023/06/28 00:37:16;;;;;;;9.10;3.00;;;16.50;99.90;;;;;;4885522;29;20497;-69
2023/06/28 00:39:42;;;;;;;9.43;3.05;;;16.50;99.90;;;;;;4868379;29;20057;-69
2023/06/28 00:42:08;;;;;;;9.77;3.20;;;16.40;99.90;;;;;;4886479;29;20053;-70
2023/06/28 00:44:34;;;;;;;8.88;2.95;;;16.40;99.90;;;;;;4884675;29;20063;-70
2023/06/28 00:47:02;;;;;;;8.30;3.05;;;16.40;99.90;;;;;;4886598;29;20380;-69
2023/06/28 00:49:31;;;;;;;7.82;3.05;;;16.40;99.90;;;;;;4884683;29;20068;-70
2023/06/28 00:51:58;;;;;;;7.28;2.70;;;16.40;99.90;;;;;;4886083;29;20053;-70
2023/06/28 00:54:24;;;;;;;7.75;2.60;;;16.30;99.90;;;;;;4885904;29;20065;-70
2023/06/28 00:56:51;;;;;;;8.50;3.20;;;16.30;99.90;;;;;;4885333;29;20060;-70
2023/06/28 00:59:17;;;;;;;6.57;3.13;;;16.30;99.90;;;;;;4886400;29;20065;-70
2023/06/28 01:01:44;;;;;;;4.55;2.80;;;16.20;99.90;;;;;;4867512;29;20116;-70
2023/06/28 01:04:13;;;;;;;9.20;3.13;;;16.20;99.90;;;;;;4886132;29;20057;-70
2023/06/28 01:06:41;;;;;;;8.07;3.22;;;16.20;99.90;;;;;;4884064;29;20068;-70
2023/06/28 01:09:08;;;;;;;9.23;3.42;;;16.10;99.90;;;;;;4885838;29;20075;-70
2023/06/28 01:11:35;;;;;;;11.05;3.42;;;16.10;99.90;;;;;;4885287;29;20412;-70
2023/06/28 01:14:02;;;;;;;8.15;3.15;;;16.10;99.90;;;;;;4884693;29;20064;-70
2023/06/28 01:16:27;;;;;;;10.10;3.58;;;16.10;99.90;;;;;;4886088;29;20076;-70
2023/06/28 01:18:53;;;;;;;7.75;3.50;;;16.10;99.90;;;;;;4884070;29;20065;-70
2023/06/28 01:21:22;;;;;;;8.48;3.30;;;16.10;99.90;;;;;;4885615;29;20072;-70
2023/06/28 01:23:48;;;;;;;9.63;2.85;;;16.10;99.90;;;;;;4884231;29;20572;-70
2023/06/28 01:26:15;;;;;;;7.10;3.47;;;16.00;99.90;;;;;;4885197;29;20060;-70
2023/06/28 01:28:42;;;;;;;6.22;2.50;;;16.00;99.90;;;;;;4885291;29;20053;-70
2023/06/28 01:31:08;;;;;;;9.35;3.67;;;16.00;99.90;;;;;;4852127;29;20092;-70
2023/06/28 01:33:34;;;;;;;8.30;3.08;;;16.00;99.90;;;;;;4884112;29;20143;-70
2023/06/28 01:36:01;;;;;;;8.52;3.08;;;16.00;99.90;;;;;;4883683;29;20068;-70
2023/06/28 01:38:28;;;;;;;10.23;3.30;;;15.90;99.90;;;;;;4885751;29;20049;-70
2023/06/28 01:40:55;;;;;;;8.13;2.90;;;16.00;99.90;;;;;;4885119;29;20053;-70
2023/06/28 01:43:21;;;;;;;8.38;3.28;;;16.00;99.90;;;;;;4888949;29;20110;-70
2023/06/28 01:45:49;;;;;;;8.18;3.33;;;15.90;99.90;;;;;;4888316;29;20125;-70
2023/06/28 01:48:17;;;;;;;8.43;3.10;;;15.90;99.90;;;;;;4887415;29;20116;-70
2023/06/28 01:50:43;;;;;;;6.13;2.92;;;15.90;99.90;;;;;;4888695;29;20049;-70
2023/06/28 01:53:09;;;;;;;10.18;3.35;;;15.90;99.90;;;;;;4887043;29;20079;-70
2023/06/28 01:55:35;;;;;;;6.90;3.38;;;15.90;99.90;;;;;;4871896;29;20057;-70
2023/06/28 01:58:00;;;;;;;9.35;3.47;;;15.80;99.90;;;;;;4886917;29;20175;-70
2023/06/28 02:00:26;;;;;;;9.20;3.60;;;15.80;99.90;;;;;;4888693;29;20391;-70
2023/06/28 02:02:53;;;;;;;8.13;3.53;;;15.80;99.90;;;;;;4871139;29;20449;-70
2023/06/28 02:05:19;;;;;;;10.77;3.65;;;15.80;99.90;;;;;;4887428;29;20488;-70
2023/06/28 02:07:45;;;;;;;6.32;3.25;;;15.80;99.90;;;;;;4888816;29;20053;-70
2023/06/28 02:10:11;;;;;;;9.52;4.20;;;15.80;99.90;;;;;;4869733;29;20865;-70
2023/06/28 02:12:37;;;;;;;12.75;4.40;;;15.80;99.90;;;;;;4888210;29;20092;-70
2023/06/28 02:15:04;;;;;;;10.25;4.00;;;15.80;99.90;;;;;;4886698;29;20685;-71
2023/06/28 02:17:31;;;;;;;6.30;3.58;;;15.70;99.90;;;;;;4891225;29;20082;-70
2023/06/28 02:20:00;;;;;;;11.02;4.30;;;15.80;99.90;;;;;;4906193;29;20643;-70
2023/06/28 02:22:26;;;;;;;11.05;4.22;;;15.80;99.90;;;;;;4888837;29;20040;-70
2023/06/28 02:24:52;;;;;;;11.50;4.50;;;15.80;99.90;;;;;;4906858;29;20138;-70
2023/06/28 02:27:18;;;;;;;10.02;4.07;;;15.80;99.90;;;;;;4905130;29;20072;-70
2023/06/28 02:29:43;;;;;;;7.05;4.03;;;15.80;99.90;;;;;;4906841;29;20067;-70
2023/06/28 02:32:09;;;;;;;11.43;4.35;;;15.70;99.90;;;;;;4888269;29;20061;-70
2023/06/28 02:34:35;;;;;;;8.00;4.40;;;15.80;99.90;;;;;;4907015;29;20111;-70
2023/06/28 02:37:01;;;;;;;12.45;5.03;;;15.80;99.90;;;;;;4906155;29;20112;-70
2023/06/28 02:39:27;;;;;;;9.63;4.65;;;15.70;99.90;;;;;;4906257;29;20056;-70
2023/06/28 02:41:52;;;;;;;8.52;4.70;;;15.70;99.90;;;;;;4907242;29;20052;-70
2023/06/28 02:44:18;;;;;;;8.40;4.30;;;15.80;99.90;;;;;;4905130;29;20629;-70
2023/06/28 02:46:44;;;;;;;10.55;4.65;;;15.80;99.90;;;;;;4906913;29;20059;-70
2023/06/28 02:49:10;;;;;;;11.82;4.50;;;15.80;99.90;;;;;;4905012;29;20057;-68
2023/06/28 02:51:35;;;;;;;8.35;4.55;;;15.80;99.90;;;;;;4906606;29;20139;-68
2023/06/28 02:54:01;;;;;;;10.40;4.65;;;15.80;99.90;;;;;;4905283;29;20523;-68
2023/06/28 02:56:28;;;;;;;12.20;5.28;;;15.80;99.90;;;;;;4889305;29;20052;-68
2023/06/28 02:58:54;;;;;;;10.18;4.60;;;15.80;99.90;;;;;;4906558;29;20064;-68
2023/06/28 03:01:22;;;;;;;11.88;4.72;;;15.80;99.90;;;;;;4904743;29;20088;-68
2023/06/28 03:03:48;;;;;;;10.27;4.75;;;15.80;99.90;;;;;;4906749;29;20060;-68
2023/06/28 03:06:15;;;;;;;13.80;5.00;;;15.80;99.90;;;;;;4904761;29;20048;-68
2023/06/28 03:08:41;;;;;;;15.45;5.40;;;15.80;99.90;;;;;;4906506;29;20056;-68
2023/06/28 03:11:07;;;;;;;8.68;4.55;;;15.80;99.90;;;;;;4905218;29;20063;-68
2023/06/28 03:13:33;;;;;;;8.45;4.68;;;15.90;99.90;;;;;;4905379;29;20049;-68
2023/06/28 03:15:59;;;;;;;8.30;4.22;;;15.80;99.90;;;;;;4905980;29;20123;-68
2023/06/28 03:18:25;;;;;;;10.25;4.60;;;15.80;99.90;;;;;;4887563;29;20061;-68
2023/06/28 03:20:51;;;;;;;8.88;4.80;;;15.90;99.90;;;;;;4906024;29;20092;-68
2023/06/28 03:23:17;;;;;;;11.30;4.28;;;15.90;99.90;;;;;;4903928;29;20109;-68
2023/06/28 03:25:42;;;;;;;10.35;4.47;;;15.90;99.90;;;;;;4905756;29;20112;-68
2023/06/28 03:28:08;;;;;;;12.45;5.07;;;15.90;99.90;;;;;;4887137;29;20056;-69
2023/06/28 03:30:34;;;;;;;10.77;4.72;;;15.90;99.90;;;;;;4905173;29;20059;-70
2023/06/28 03:32:59;;;;;;;9.20;4.68;;;15.90;99.90;;;;;;4888799;29;20068;-70
2023/06/28 03:35:25;;;;;;;9.68;4.78;;;16.00;99.90;;;;;;4904498;29;20045;-70
2023/06/28 03:37:52;;;;;;;8.13;4.68;;;15.90;99.90;;;;;;4905793;29;20059;-70
2023/06/28 03:40:18;;;;;;;9.02;4.55;;;15.90;99.90;;;;;;4903970;29;20088;-70
2023/06/28 03:42:44;;;;;;;9.48;4.50;;;16.00;99.90;;;;;;4905385;29;20575;-70
2023/06/28 03:45:10;;;;;;;7.75;4.75;;;16.00;99.90;;;;;;4903632;29;20067;-71
2023/06/28 03:47:35;;;;;;;9.98;4.85;;;16.00;99.90;;;;;;4905346;29;20099;-70
2023/06/28 03:50:01;;;;;;;8.02;4.55;;;16.00;99.90;;;;;;4904868;29;20079;-70
2023/06/28 03:52:27;;;;;;;8.95;5.18;;;16.00;99.90;;;;;;4904049;29;20056;-70
2023/06/28 03:54:53;;;;;;;10.95;4.93;;;16.00;99.90;;;;;;4888362;29;20059;-70
2023/06/28 03:57:21;;;;;;;9.60;5.05;;;16.00;99.90;;;;;;4903014;29;20646;-70
2023/06/28 03:59:48;;;;;;;9.82;5.65;;;16.00;99.90;;;;;;4905169;29;20072;-70
2023/06/28 04:02:14;;;;;;;8.10;5.15;;;16.00;99.90;;;;;;4886490;29;20094;-70
2023/06/28 04:04:40;;;;;;;7.85;4.63;;;16.00;99.90;;;;;;4905126;29;20087;-70
2023/06/28 04:07:06;;;;;;;9.10;5.00;;;16.00;99.90;;;;;;4904435;29;20048;-69
2023/06/28 04:09:32;;;;;;;8.52;5.30;;;16.00;99.90;;;;;;4903840;29;20059;-70
2023/06/28 04:11:58;;;;;;;12.95;6.15;;;16.00;99.90;;;;;;4887676;29;20064;-70
2023/06/28 04:14:24;;;;;;;8.18;5.47;;;16.00;99.90;;;;;;4903013;29;20131;-70
2023/06/28 04:16:53;;;;;;;13.32;5.20;;;16.00;99.90;;;;;;4888032;29;20440;-71
2023/06/28 04:19:19;;;;;;;8.63;5.55;;;16.10;99.90;;;;;;4903190;29;20056;-71
2023/06/28 04:21:45;;;;;;;11.43;5.25;;;16.10;99.90;;;;;;4904949;29;20048;-70
2023/06/28 04:24:11;;;;;;;9.25;4.93;;;16.10;99.90;;;;;;4886961;29;20063;-70
2023/06/28 04:26:36;;;;;;;9.23;5.32;;;16.10;99.90;;;;;;4903742;29;20057;-71
2023/06/28 04:29:02;;;;;;;9.68;4.93;;;16.10;99.90;;;;;;4904656;29;20401;-70
2023/06/28 04:31:28;;;;;;;11.52;5.13;;;16.10;99.90;;;;;;4886138;29;20056;-70
2023/06/28 04:33:57;;;;;;;11.18;5.15;;;16.10;99.90;;;;;;4905058;29;20048;-70
2023/06/28 04:36:26;;;;;;;8.30;4.93;;;16.00;99.90;;;;;;4903198;29;20108;-71
2023/06/28 04:38:54;;;;;;;8.63;4.85;;;16.10;99.90;;;;;;4905071;29;20074;-70
2023/06/28 04:41:25;;;;;;;9.48;5.70;;;16.00;99.90;;;;;;4904173;29;20057;-71
2023/06/28 04:43:54;;;;;;;12.38;4.55;;;16.10;99.90;;;;;;4903444;29;20060;-71
2023/06/28 04:46:22;;;;;;;11.32;4.57;;;16.10;99.90;;;;;;4904924;29;20697;-71
2023/06/28 04:48:50;;;;;;;13.63;5.40;;;16.10;99.90;;;;;;4902826;29;20092;-71
2023/06/28 04:51:17;;;;;;;15.40;5.07;;;16.20;99.90;;;;;;4887761;29;20053;-71
2023/06/28 04:53:42;;;;;;;6.70;4.53;;;16.20;99.90;;;;;;4903074;29;20049;-71
2023/06/28 04:56:08;;;;;;;12.45;5.35;;;16.10;99.90;;;;;;4904720;29;20163;-71
2023/06/28 04:58:34;;;;;;;7.85;5.18;;;16.10;99.90;;;;;;4904120;29;20063;-71
2023/06/28 05:01:06;;;;;;;8.65;5.00;;;16.00;99.90;;;;;;4903770;29;20252;-70
2023/06/28 05:03:31;;;;;;;11.02;5.00;;;16.00;99.90;;;;;;4904783;29;20095;-71
2023/06/28 05:05:57;;;;;;;9.45;4.78;;;16.10;99.90;;;;;;4903030;29;20060;-71
2023/06/28 05:08:23;;;;;;;7.72;4.50;;;16.10;99.90;;;;;;4887598;29;20090;-71
2023/06/28 05:10:49;;;;;;;11.82;4.57;;;16.10;99.90;;;;;;4903142;29;20065;-71
2023/06/28 05:13:15;;;;;;;8.90;4.70;;;16.10;99.90;;;;;;4904373;29;20049;-71
2023/06/28 05:15:41;;;;;;;13.23;5.20;;;16.10;99.90;;;;;;4905337;29;20143;-71
2023/06/28 05:18:06;;;;;;;7.07;5.00;;;16.10;99.90;;;;;;4907359;29;20041;-71
2023/06/28 05:20:32;;;;;;;9.77;4.68;;;16.10;99.90;;;;;;4908513;29;20560;-71
2023/06/28 05:23:13;;;;;;;8.82;4.75;;;16.10;99.90;;;;;;4906797;29;20067;-71
2023/06/28 05:25:40;;;;;;;8.93;4.60;;;16.00;99.90;;;;;;4908316;29;20064;-71
2023/06/28 05:28:07;;;;;;;9.52;4.32;;;16.00;99.90;;;;;;4906753;29;20150;-71
2023/06/28 05:30:33;;;;;;;9.73;4.45;;;16.10;99.90;;;;;;4908146;29;20131;-70
2023/06/28 05:33:01;;;;;;;5.30;3.83;;;16.10;99.90;;;;;;4908121;29;20088;-70
2023/06/28 05:35:29;;;;;;;7.20;4.18;;;16.10;99.90;;;;;;4906872;29;20071;-71
2023/06/28 05:37:54;;;;;;;8.77;4.00;;;16.10;99.90;;;;;;4908383;29;20052;-71
2023/06/28 05:40:20;;;;;;;10.57;4.05;;;16.10;99.90;;;;;;4906669;29;20064;-71
2023/06/28 05:42:46;;;;;;;7.07;3.80;;;16.20;99.90;;;;;;4908172;29;20393;-70
2023/06/28 05:45:11;;;;;;;7.03;3.47;;;16.20;99.90;;;;;;4906681;29;20112;-71
2023/06/28 05:47:37;;;;;;;5.72;3.53;;;16.20;99.90;;;;;;4907680;29;20092;-70
2023/06/28 05:50:03;;;;;;;7.00;3.00;;;16.20;99.90;;;;;;4890679;29;20083;-70
2023/06/28 05:52:29;;;;;;;6.47;2.78;;;16.20;99.90;;;;;;4906747;29;20064;-70
2023/06/28 05:54:54;;;;;;;7.50;3.30;;;16.30;99.90;;;;;;4908116;29;20401;-71
2023/06/28 05:57:20;;;;;;;6.32;3.45;;;16.30;99.90;;;;;;4888841;29;20144;-71
2023/06/28 05:59:46;;;;;;;7.32;2.88;;;16.30;99.90;;;;;;4907874;29;20057;-71
2023/06/28 06:02:11;;;;;;;5.88;3.05;;;16.40;99.90;;;;;;4905837;29;20060;-71
2023/06/28 06:04:37;;;;;;;5.88;2.72;;;16.50;99.90;;;;;;4907686;29;20056;-71
2023/06/28 06:07:03;;;;;;;7.20;2.70;;;16.50;99.90;;;;;;4907067;29;20045;-70
2023/06/28 06:09:30;;;;;;;7.47;2.67;;;16.50;99.90;;;;;;4906513;29;20083;-70
2023/06/28 06:11:56;;;;;;;6.00;2.90;;;16.40;99.90;;;;;;4907255;29;20134;-70
2023/06/28 06:14:22;;;;;;;3.85;2.70;;;16.50;99.90;;;;;;4888509;29;20058;-70
2023/06/28 06:16:47;;;;;;;5.93;4.13;;;16.60;99.90;;;;;;4907217;29;20160;-70
2023/06/28 06:19:13;;;;;;;4.93;3.30;;;16.50;99.90;;;;;;4905626;29;20060;-70
2023/06/28 06:21:39;;;;;;;8.05;3.30;;;16.60;99.90;;;;;;4907530;29;20073;-70
2023/06/28 06:24:07;;;;;;;6.93;3.00;;;16.60;99.90;;;;;;4906387;29;20095;-70
2023/06/28 06:26:36;;;;;;;7.97;3.53;;;16.70;99.90;;;;;;4905524;29;20084;-70
2023/06/28 06:29:02;;;;;;;10.75;3.72;;;16.70;99.90;;;;;;4902303;29;20055;-70
2023/06/28 06:31:29;;;;;;;6.88;3.50;;;16.70;99.90;;;;;;4884183;29;20057;-70
2023/06/28 06:34:01;;;;;;;8.02;3.38;;;16.70;99.90;;;;;;4893450;29;20068;-70
2023/06/28 06:36:27;;;;;;;7.15;3.47;;;16.70;99.90;;;;;;4888379;29;20055;-70
2023/06/28 06:38:54;;;;;;;6.30;3.70;;;16.70;99.90;;;;;;4872418;29;20064;-70
2023/06/28 06:41:21;;;;;;;7.35;3.47;;;16.70;99.90;;;;;;4857058;29;20383;-70
2023/06/28 06:43:47;;;;;;;7.72;3.63;;;16.60;99.90;;;;;;4886570;29;20084;-71
2023/06/28 06:46:13;;;;;;;8.40;3.85;;;16.70;99.90;;;;;;4888259;29;20763;-70
2023/06/28 06:48:38;;;;;;;7.88;4.10;;;16.70;99.90;;;;;;4886474;29;20059;-71
2023/06/28 06:51:05;;;;;;;6.68;4.15;;;16.70;99.90;;;;;;4888172;29;20096;-70
2023/06/28 06:53:31;;;;;;;6.18;4.00;;;16.70;99.90;;;;;;4886239;29;20060;-70
2023/06/28 06:55:57;;;;;;;10.38;4.43;;;16.80;99.90;;;;;;4888358;29;20128;-71
2023/06/28 06:58:23;;;;;;;8.38;4.60;;;16.80;99.90;;;;;;4870365;29;20063;-70
2023/06/28 07:00:51;;;;;;;9.38;4.60;;;16.80;99.90;;;;;;4887164;29;20049;-71
2023/06/28 07:03:20;;;;;;;10.25;4.45;;;16.80;99.90;;;;;;4888080;29;20092;-70
2023/06/28 07:05:46;;;;;;;8.75;5.07;;;16.70;99.90;;;;;;4884999;29;20056;-70
2023/06/28 07:08:12;;;;;;;10.85;5.25;;;16.80;99.90;;;;;;4887696;29;20086;-70
2023/06/28 07:10:38;;;;;;;7.60;4.43;;;16.80;99.90;;;;;;4869251;29;20128;-70
2023/06/28 07:13:03;;;;;;;13.50;4.93;;;16.80;99.90;;;;;;4887777;29;20103;-70
2023/06/28 07:15:29;;;;;;;13.93;5.05;;;16.80;99.90;;;;;;4885729;29;20093;-70
2023/06/28 07:17:55;;;;;;;8.20;4.53;;;16.90;99.90;;;;;;4886969;29;20067;-71
2023/06/28 07:20:21;;;;;;;8.57;4.63;;;16.80;99.90;;;;;;4887724;29;20071;-70
2023/06/28 07:22:47;;;;;;;11.15;4.75;;;16.80;99.90;;;;;;4860306;29;20069;-72
2023/06/28 07:25:13;;;;;;;8.57;4.70;;;16.80;99.90;;;;;;4882247;29;20052;-72
2023/06/28 07:27:39;;;;;;;9.38;4.70;;;16.90;99.90;;;;;;4878910;29;20506;-73
2023/06/28 07:30:07;;;;;;;12.50;5.22;;;16.90;99.90;;;;;;4881182;29;20076;-69
2023/06/28 07:32:33;;;;;;;11.55;4.70;;;16.90;99.90;;;;;;4880025;29;20092;-69
2023/06/28 07:34:59;;;;;;;13.68;4.95;;;16.90;99.90;;;;;;4884007;29;20065;-69
2023/06/28 07:37:25;;;;;;;11.98;5.18;;;16.90;99.90;;;;;;4887551;29;20447;-69
2023/06/28 07:39:51;;;;;;;12.32;5.43;;;16.90;99.90;;;;;;4876838;29;20852;-68
2023/06/28 07:42:18;;;;;;;7.15;5.15;;;16.90;99.90;;;;;;4879024;29;20611;-67
2023/06/28 07:44:44;;;;;;;10.95;5.28;;;16.90;99.90;;;;;;4876623;29;20065;-68
2023/06/28 07:47:10;;;;;;;10.88;5.55;;;16.90;99.90;;;;;;4887534;29;20535;-68
2023/06/28 07:49:36;;;;;;;13.82;5.55;;;16.80;99.90;;;;;;4878178;29;20057;-68
2023/06/28 07:52:01;;;;;;;12.88;5.25;;;16.90;99.90;;;;;;4886745;29;20057;-68
2023/06/28 07:54:27;;;;;;;15.38;5.30;;;16.90;99.90;;;;;;4870368;29;20060;-67
2023/06/28 07:56:53;;;;;;;16.17;5.95;;;16.90;99.90;;;;;;4885792;29;20053;-67
2023/06/28 07:59:20;;;;;;;11.18;5.50;;;17.00;99.90;;;;;;4870557;29;20064;-67
2023/06/28 08:01:46;;;;;;;10.80;4.80;;;17.10;99.90;;;;;;4868924;29;20065;-66
2023/06/28 08:04:15;;;;;;;12.65;5.43;;;17.10;99.90;;;;;;4870472;29;20068;-67
2023/06/28 08:06:41;;;;;;;9.75;4.78;;;17.10;99.90;;;;;;4885868;29;20064;-67
2023/06/28 08:09:07;;;;;;;15.88;5.38;;;17.10;99.90;;;;;;4886738;29;20499;-67
2023/06/28 08:11:33;;;;;;;14.93;5.20;;;17.10;99.90;;;;;;4886692;29;20057;-67
2023/06/28 08:13:59;;;;;;;10.90;5.43;;;17.10;99.90;;;;;;4885705;29;20052;-67
2023/06/28 08:16:25;;;;;;;9.15;4.97;;;17.10;99.90;;;;;;4887102;29;20049;-67
2023/06/28 08:18:50;;;;;;;9.75;4.90;;;17.10;99.90;;;;;;4885032;29;20056;-67
2023/06/28 08:21:16;;;;;;;10.90;4.75;;;17.10;99.90;;;;;;4886644;29;20049;-67
2023/06/28 08:23:42;;;;;;;10.07;4.35;;;17.10;99.90;;;;;;4885186;29;20049;-67
2023/06/28 08:26:08;;;;;;;7.22;4.35;;;17.10;99.90;;;;;;4885939;29;20412;-67
2023/06/28 08:28:33;;;;;;;11.20;5.10;;;17.10;99.90;;;;;;4869040;29;20060;-67
2023/06/28 08:30:59;;;;;;;12.98;4.80;;;17.10;99.90;;;;;;4885070;29;20113;-67
2023/06/28 08:33:25;;;;;;;12.75;4.63;;;17.10;99.90;;;;;;4886522;29;20105;-67
2023/06/28 08:35:51;;;;;;;11.00;4.95;;;17.00;99.90;;;;;;4884588;29;20061;-67
2023/06/28 08:38:17;;;;;;;10.25;5.28;;;17.10;99.90;;;;;;4886466;29;20060;-68
2023/06/28 08:40:43;;;;;;;6.93;4.20;;;17.00;99.90;;;;;;4882956;29;20045;-67
2023/06/28 08:43:15;;;;;;;11.73;5.07;;;17.10;99.90;;;;;;4884575;29;20057;-72
2023/06/28 08:45:43;;;;;;;14.27;5.45;;;17.10;99.90;;;;;;4885813;29;20072;-69
2023/06/28 08:48:09;;;;;;;11.55;5.43;;;17.20;99.90;;;;;;4884227;29;20060;-69
2023/06/28 08:50:39;;;;;;;9.50;5.05;;;17.10;99.90;;;;;;4869972;29;20049;-69
2023/06/28 08:53:09;;;;;;;12.02;5.85;;;17.10;99.90;;;;;;4888181;29;20101;-69
2023/06/28 08:55:38;;;;;;;14.30;5.82;;;17.10;99.90;;;;;;4890251;29;20063;-68
2023/06/28 08:58:06;;;;;;;16.35;5.32;;;17.10;99.90;;;;;;4888705;29;20142;-68
2023/06/28 09:00:32;;;;;;;10.95;5.80;;;17.10;99.90;;;;;;4889502;29;20177;-69
2023/06/28 09:02:58;;;;;;;12.57;5.95;;;17.20;99.90;;;;;;4889873;29;20049;-69
2023/06/28 09:05:24;;;;;;;9.70;5.95;;;17.20;99.90;;;;;;4871328;29;20070;-69
2023/06/28 09:07:53;;;;;;;12.32;6.10;;;17.20;99.90;;;;;;4889907;29;20176;-69
2023/06/28 09:10:20;;;;;;;13.65;6.80;;;17.20;99.90;;;;;;4887975;29;20060;-69
2023/06/28 09:12:47;;;;;;;15.80;5.88;;;17.30;99.90;;;;;;4889766;29;20060;-69
2023/06/28 09:15:20;;;;;;;13.00;6.75;;;17.30;99.90;;;;;;4888665;29;20093;-68
2023/06/28 09:17:46;;;;;;;;;;;17.40;99.90;;;;;;4889718;29;20075;-68
2023/06/28 09:20:19;;;;;;;13.00;5.93;;;17.40;99.90;;;;;;4889432;29;19927;-68
2023/06/28 09:22:59;;;;;;;13.20;7.55;;;17.50;99.90;;;;;;4887935;29;20408;-69
2023/06/28 09:25:30;;;;;;;13.52;7.38;;;17.50;99.90;;;;;;4889225;29;20088;-69
2023/06/28 09:27:57;;;;;;;11.32;6.88;;;17.50;99.90;;;;;;4888026;29;20092;-68
2023/06/28 09:30:23;;;;;;;13.82;7.78;;;17.50;99.90;;;;;;4889136;29;20089;-69
2023/06/28 09:32:52;;;;;;;10.32;7.28;;;17.50;99.90;;;;;;4888879;29;20057;-69
2023/06/28 09:35:18;;;;;;;15.00;8.13;;;17.50;99.90;;;;;;4887860;29;20053;-69
2023/06/28 09:37:54;;;;;;;14.02;7.32;;;17.50;99.90;;;;;;4889753;29;20523;-69
2023/06/28 09:40:20;;;;;;;13.93;7.88;;;17.50;99.90;;;;;;4887690;29;20429;-69
2023/06/28 09:42:48;;;;;;;17.30;7.55;;;17.50;99.90;;;;;;4889258;29;20147;-70
2023/06/28 09:45:28;;;;;;;17.17;9.07;;;17.50;99.90;;;;;;4887943;29;20080;-70
2023/06/28 09:47:58;;;;;;;13.60;8.80;;;17.60;99.90;;;;;;4871413;29;20492;-70
2023/06/28 09:50:47;;;;;;;15.80;8.77;;;17.50;99.90;;;;;;4889203;29;20095;-70
2023/06/28 09:53:15;;;;;;;17.85;9.15;;;17.60;99.90;;;;;;4877403;29;20057;-70
2023/06/28 09:55:45;;;;;;;17.30;9.18;;;17.60;99.90;;;;;;4871901;29;20052;-71
2023/06/28 09:58:21;;;;;;;21.33;9.85;;;17.70;99.90;;;;;;4871098;29;20053;-70
2023/06/28 10:00:49;;;;;;;20.27;9.60;;;17.80;99.90;;;;;;4888134;29;20065;-70
2023/06/28 10:03:17;;;;;;;21.60;10.23;;;17.90;99.90;;;;;;4879592;29;20057;-69
2023/06/28 10:05:45;;;;;;;17.58;9.27;;;17.90;99.90;;;;;;4876101;29;20056;-69
2023/06/28 10:08:16;;;;;;;20.90;10.52;;;17.90;99.90;;;;;;4859369;29;20073;-69
2023/06/28 10:10:44;;;;;;;19.77;9.82;;;18.00;99.90;;;;;;4882875;29;20053;-69
2023/06/28 10:13:14;;;;;;;19.13;9.48;;;17.90;99.90;;;;;;4857120;29;20061;-68
2023/06/28 10:16:07;;;;;;;19.83;10.13;;;18.10;99.90;;;;;;4877869;29;20084;-69
2023/06/28 10:18:33;;;;;;;19.38;10.00;;;18.10;99.90;;;;;;4868474;29;20265;-70
2023/06/28 10:21:06;;;;;;;22.30;10.32;;;18.00;99.90;;;;;;4875838;29;20060;-70
2023/06/28 10:23:35;;;;;;;18.00;9.95;;;18.00;99.90;;;;;;4880224;29;20053;-69
2023/06/28 10:26:05;;;;;;;19.35;10.85;;;18.00;99.90;;;;;;4879723;29;20077;-69
2023/06/28 10:28:35;;;;;;;19.08;11.20;;;18.00;99.90;;;;;;4879624;29;20057;-69
2023/06/28 10:31:03;;;;;;;19.35;11.07;;;18.00;99.90;;;;;;4846913;29;20063;-69
2023/06/28 10:33:33;;;;;;;16.63;9.68;;;18.00;99.90;;;;;;4879987;29;20045;-70
2023/06/28 10:36:02;;;;;;;17.90;10.98;;;18.00;99.90;;;;;;4854157;29;20133;-69
2023/06/28 10:38:38;;;;;;;17.17;8.38;;;18.00;99.90;;;;;;4853284;29;20139;-70
2023/06/28 10:41:05;;;;;;;16.63;10.07;;;18.00;99.90;;;;;;4869152;29;20089;-70
2023/06/28 10:43:31;;;;;;;23.52;11.18;;;18.00;99.90;;;;;;4869123;29;20482;-70
2023/06/28 10:45:57;;;;;;;14.57;10.27;;;17.90;99.90;;;;;;4869841;29;20160;-70
2023/06/28 10:48:27;;;;;;;16.88;9.98;;;17.90;99.90;;;;;;4868185;29;20493;-70
2023/06/28 10:50:58;;;;;;;16.98;10.00;;;17.90;99.90;;;;;;4869958;29;20060;-70
2023/06/28 10:53:26;;;;;;;19.73;10.70;;;18.00;99.90;;;;;;4868143;29;20065;-70
2023/06/28 10:56:04;;;;;;;19.63;10.45;;;18.00;99.90;;;;;;4852900;29;20058;-70
2023/06/28 10:58:37;;;;;;;19.23;10.88;;;18.00;99.90;;;;;;4852700;29;20064;-72
2023/06/28 11:01:06;;;;;;;18.33;9.82;;;18.00;99.90;;;;;;4867878;29;20084;-73
2023/06/28 11:03:43;;;;;;;18.55;10.18;;;18.10;99.90;;;;;;4869535;29;21003;-73
2023/06/28 11:06:10;;;;;;;16.30;9.98;;;18.00;99.90;;;;;;4867569;29;20476;-73
2023/06/28 11:08:38;;;;;;;16.83;9.48;;;18.10;99.90;;;;;;4869215;29;20605;-73
2023/06/28 11:11:05;;;;;;;18.85;10.50;;;18.10;99.90;;;;;;4868394;29;20323;-73
2023/06/28 11:13:40;;;;;;;18.52;10.88;;;18.10;99.90;;;;;;4867617;29;20072;-73
2023/06/28 11:16:10;;;;;;;16.20;9.73;;;18.10;99.90;;;;;;4867795;29;20144;-73
2023/06/28 11:18:37;;;;;;;17.55;10.35;;;18.00;99.90;;;;;;4857845;29;20058;-73
2023/06/28 11:21:05;;;;;;;17.90;9.82;;;18.10;99.90;;;;;;4869014;29;20396;-72
2023/06/28 11:23:39;;;;;;;14.10;9.93;;;18.10;99.90;;;;;;4867597;29;20075;-71
2023/06/28 11:26:16;;;;;;;15.90;9.13;;;18.10;99.90;;;;;;4851265;29;20554;-71
2023/06/28 11:28:54;;;;;;;15.63;10.18;;;18.10;99.90;;;;;;4893576;29;20055;-71
2023/06/28 11:31:39;;;;;;;14.38;8.93;;;18.10;99.90;;;;;;4903276;29;20104;-72
2023/06/28 11:34:04;;;;;;;13.48;9.23;;;18.20;99.90;;;;;;4904770;29;20112;-72
2023/06/28 11:36:31;;;;;;;15.73;9.73;;;18.10;99.90;;;;;;4886027;29;20056;-71
2023/06/28 11:38:57;;;;;;;13.80;10.23;;;18.20;99.90;;;;;;4904408;29;20634;-71
2023/06/28 11:41:23;;;;;;;13.27;9.60;;;18.20;99.90;;;;;;4886788;29;20127;-71
2023/06/28 11:43:49;;;;;;;14.57;10.02;;;18.20;99.90;;;;;;4886535;29;20547;-72
2023/06/28 11:46:17;;;;;;;14.70;9.40;;;18.20;99.90;;;;;;4893972;29;20120;-71
2023/06/28 11:48:44;;;;;;;13.85;9.77;;;18.20;99.90;;;;;;4884105;29;20057;-72
2023/06/28 11:51:12;;;;;;;11.73;9.15;;;18.20;99.90;;;;;;4885832;29;20049;-72
2023/06/28 11:53:38;;;;;;;13.23;9.30;;;18.20;99.90;;;;;;4883904;29;20167;-72
2023/06/28 11:56:04;;;;;;;12.40;9.10;;;18.30;99.90;;;;;;4885394;29;20509;-72
2023/06/28 11:58:32;;;;;;;16.58;9.55;;;18.30;99.90;;;;;;4867690;29;20153;-72
2023/06/28 12:01:00;;;;;;;18.35;9.95;;;18.30;99.90;;;;;;4884474;29;20873;-73
2023/06/28 12:03:36;;;;;;;9.88;8.35;;;18.30;99.90;;;;;;4885072;29;20081;-74
2023/06/28 12:06:05;;;;;;;14.23;9.10;;;18.40;99.90;;;;;;4883891;29;20093;-82
2023/06/28 12:08:35;;;;;;;16.58;9.73;;;18.30;99.90;;;;;;4870864;29;20106;-69
2023/06/28 12:11:07;;;;;;;14.15;9.70;;;18.40;99.90;;;;;;4877076;29;20057;-71
2023/06/28 12:13:33;;;;;;;11.88;9.75;;;18.40;99.90;;;;;;4866124;29;20512;-75
2023/06/28 12:16:21;;;;;;;11.85;9.75;;;18.40;99.90;;;;;;4866667;29;20221;-74
2023/06/28 12:18:59;;;;;;;14.25;10.07;;;18.40;99.90;;;;;;4848696;29;20071;-68
2023/06/28 12:21:26;;;;;;;19.42;11.85;;;18.40;99.90;;;;;;4866987;29;20426;-68
2023/06/28 12:23:52;;;;;;;22.13;10.43;;;18.40;99.90;;;;;;4865651;29;20106;-68
2023/06/28 12:26:18;;;;;;;17.83;10.50;;;18.40;99.90;;;;;;4849521;29;20497;-69
2023/06/28 12:28:48;;;;;;;14.85;10.98;;;18.50;99.90;;;;;;4866403;29;20057;-68
2023/06/28 12:31:15;;;;;;;17.00;11.88;;;18.50;99.90;;;;;;4865476;29;20071;-68
2023/06/28 12:33:41;;;;;;;18.20;11.80;;;18.50;99.90;;;;;;4866816;29;20061;-69
2023/06/28 12:36:11;;;;;;;17.02;10.25;;;18.50;99.90;;;;;;4865242;29;20107;-68
2023/06/28 12:38:43;;;;;;;20.80;12.43;;;18.50;99.90;;;;;;4866960;29;20128;-68
2023/06/28 12:41:09;;;;;;;22.15;12.23;;;18.60;99.90;;;;;;4865551;29;20058;-68